createdAt,value
2024-03-01T00:02:34.490Z,17.58
2024-03-01T00:07:36.520Z,13.75
2024-03-01T00:12:38.851Z,13.52
2024-03-01T00:17:40.946Z,19.63
2024-03-01T00:22:42.875Z,14.50
2024-03-01T00:27:44.817Z,16.75
2024-03-01T00:32:46.874Z,14.75
2024-03-01T00:37:48.879Z,13.13
2024-03-01T00:42:50.852Z,14.23
2024-03-01T00:47:52.905Z,15.25
2024-03-01T00:52:55.022Z,15.52
2024-03-01T00:57:57.029Z,11.32
2024-03-01T01:02:59.363Z,15.07
2024-03-01T01:08:01.753Z,18.98
2024-03-01T01:13:04.089Z,17.42
2024-03-01T01:18:06.394Z,13.82
2024-03-01T01:23:08.373Z,15.93
2024-03-01T01:28:10.717Z,13.68
2024-03-01T01:33:13.167Z,17.13
2024-03-01T01:38:15.185Z,15.25
2024-03-01T01:43:17.316Z,18.00
2024-03-01T01:48:19.410Z,18.15
2024-03-01T01:53:24.690Z,19.77
2024-03-01T01:58:32.049Z,14.43
2024-03-01T02:03:37.321Z,14.00
2024-03-01T02:08:39.889Z,13.40
2024-03-01T02:13:41.968Z,17.92
2024-03-01T02:18:44.433Z,17.88
2024-03-01T02:23:46.434Z,17.55
2024-03-01T02:28:50.028Z,10.27
2024-03-01T02:33:52.035Z,18.08
2024-03-01T02:38:53.990Z,14.82
2024-03-01T02:43:55.886Z,13.93
2024-03-01T02:48:57.764Z,14.57
2024-03-01T02:53:59.716Z,10.45
2024-03-01T02:59:01.613Z,13.63
2024-03-01T03:04:04.901Z,20.15
2024-03-01T03:09:10.705Z,14.85
2024-03-01T03:14:12.629Z,14.77
2024-03-01T03:19:15.050Z,12.80
2024-03-01T03:24:16.992Z,16.65
2024-03-01T03:29:18.850Z,14.85
2024-03-01T03:34:20.957Z,15.93
2024-03-01T03:39:23.895Z,15.75
2024-03-01T03:44:25.812Z,15.52
2024-03-01T03:49:27.862Z,22.20
2024-03-01T03:54:29.794Z,14.88
2024-03-01T03:59:31.696Z,15.52
2024-03-01T04:04:33.938Z,14.13
2024-03-01T04:09:37.755Z,11.05
2024-03-01T04:14:39.696Z,12.48
2024-03-01T04:19:41.633Z,12.93
2024-03-01T04:24:44.968Z,11.88
2024-03-01T04:29:46.862Z,17.20
2024-03-01T04:34:48.831Z,14.35
2024-03-01T04:39:50.776Z,10.43
2024-03-01T04:44:52.821Z,13.85
2024-03-01T04:49:54.998Z,12.63
2024-03-01T04:54:56.908Z,15.95
2024-03-01T04:59:58.954Z,16.10
2024-03-01T05:05:01.204Z,13.82
2024-03-01T05:10:10.211Z,15.20
2024-03-01T05:15:13.634Z,14.02
2024-03-01T05:20:16.107Z,12.25
2024-03-01T05:25:18.908Z,15.65
2024-03-01T05:30:36.029Z,16.58
2024-03-01T05:35:46.983Z,17.92
2024-03-01T05:40:52.585Z,17.75
2024-03-01T05:45:58.960Z,15.20
2024-03-01T05:51:00.917Z,13.02
2024-03-01T05:56:02.833Z,19.50
2024-03-01T06:01:05.509Z,16.42
2024-03-01T06:06:09.826Z,13.43
2024-03-01T06:11:11.872Z,14.75
2024-03-01T06:16:13.836Z,16.25
2024-03-01T06:21:24.799Z,14.07
2024-03-01T06:26:26.652Z,18.55
2024-03-01T06:31:28.773Z,15.25
2024-03-01T06:36:30.762Z,16.20
2024-03-01T06:41:32.661Z,17.70
2024-03-01T06:46:34.842Z,16.90
2024-03-01T06:51:36.823Z,11.77
2024-03-01T06:56:43.498Z,18.25
2024-03-01T07:01:45.471Z,11.00
2024-03-01T07:06:47.690Z,14.43
2024-03-01T07:11:52.975Z,23.70
2024-03-01T07:16:54.854Z,13.38
2024-03-01T07:21:57.451Z,15.25
2024-03-01T07:26:59.407Z,18.92
2024-03-01T07:32:03.584Z,22.63
2024-03-01T07:37:05.872Z,17.02
2024-03-01T07:42:07.755Z,16.30
2024-03-01T07:47:10.175Z,14.90
2024-03-01T07:52:12.191Z,13.68
2024-03-01T07:57:15.403Z,24.45
2024-03-01T08:02:17.292Z,20.45
2024-03-01T08:07:19.352Z,28.17
2024-03-01T08:12:21.698Z,19.75
2024-03-01T08:17:23.851Z,29.25
2024-03-01T08:22:26.423Z,25.08
2024-03-01T08:27:30.903Z,20.60
2024-03-01T08:32:42.626Z,23.42
2024-03-01T08:37:44.710Z,22.23
2024-03-01T08:42:46.784Z,24.75
2024-03-01T08:47:59.683Z,17.58
2024-03-01T08:53:02.080Z,21.83
2024-03-01T08:58:04.212Z,16.30
2024-03-01T09:03:11.993Z,24.58
2024-03-01T09:13:17.747Z,19.63
2024-03-01T09:18:47.122Z,19.95
2024-03-01T09:23:49.997Z,15.98
2024-03-01T09:28:55.384Z,20.77
2024-03-01T09:33:57.358Z,17.80
2024-03-01T09:39:06.300Z,21.88
2024-03-01T09:44:28.374Z,23.60
2024-03-01T09:50:04.697Z,20.52
2024-03-01T09:55:47.494Z,24.50
2024-03-01T10:01:13.596Z,18.67
2024-03-01T10:06:44.085Z,22.08
2024-03-01T10:12:07.721Z,18.90
2024-03-01T10:17:28.477Z,21.70
2024-03-01T10:23:03.195Z,26.52
2024-03-01T10:28:21.315Z,24.35
2024-03-01T10:34:02.722Z,25.00
2024-03-01T10:39:11.194Z,23.73
2024-03-01T10:44:21.747Z,24.15
2024-03-01T10:49:35.812Z,23.75
2024-03-01T10:54:43.282Z,22.10
2024-03-01T11:05:11.155Z,27.42
2024-03-01T11:10:26.725Z,29.98
2024-03-01T11:15:30.557Z,31.17
2024-03-01T11:20:46.112Z,29.42
2024-03-01T11:26:08.976Z,25.45
2024-03-01T11:31:19.606Z,27.20
2024-03-01T11:36:33.465Z,25.20
2024-03-01T11:41:56.984Z,26.45
2024-03-01T11:47:09.581Z,28.27
2024-03-01T11:52:31.614Z,28.90
2024-03-01T11:57:42.475Z,26.92
2024-03-01T12:03:03.231Z,31.75
2024-03-01T12:08:38.381Z,31.42
2024-03-01T12:13:48.073Z,32.17
2024-03-01T12:18:56.810Z,37.53
2024-03-01T12:24:20.411Z,35.28
2024-03-01T12:29:59.822Z,36.78
2024-03-01T12:35:15.167Z,34.78
2024-03-01T12:40:19.051Z,35.60
2024-03-01T12:46:13.842Z,29.83
2024-03-01T12:51:27.234Z,31.45
2024-03-01T12:56:29.415Z,34.25
2024-03-01T13:01:42.558Z,39.25
2024-03-01T13:06:47.560Z,35.58
2024-03-01T13:11:53.829Z,31.90
2024-03-01T13:17:09.584Z,37.05
2024-03-01T13:22:17.462Z,37.42
2024-03-01T13:27:35.739Z,42.75
2024-03-01T13:33:02.146Z,40.38
2024-03-01T13:38:09.819Z,36.15
2024-03-01T13:48:24.556Z,46.47
2024-03-01T13:53:27.926Z,43.50
2024-03-01T13:58:31.994Z,41.15
2024-03-01T14:03:34.475Z,45.55
2024-03-01T14:08:37.127Z,39.88
2024-03-01T14:13:39.579Z,40.75
2024-03-01T14:18:41.540Z,46.67
2024-03-01T14:23:44.084Z,44.88
2024-03-01T14:28:47.318Z,41.95
2024-03-01T14:34:00.099Z,40.70
2024-03-01T14:39:02.699Z,47.30
2024-03-01T14:44:04.780Z,44.40
2024-03-01T14:49:18.032Z,43.67
2024-03-01T14:54:32.562Z,42.35
2024-03-01T14:59:34.634Z,45.83
2024-03-01T15:04:36.683Z,50.20
2024-03-01T15:09:45.664Z,43.83
2024-03-01T15:14:47.785Z,40.47
2024-03-01T15:19:51.743Z,47.88
2024-03-01T15:25:05.784Z,44.28
2024-03-01T15:30:08.880Z,40.58
2024-03-01T15:35:10.887Z,46.47
2024-03-01T15:40:13.914Z,43.22
2024-03-01T15:45:16.423Z,41.30
2024-03-01T15:50:18.769Z,41.63
2024-03-01T15:55:20.715Z,38.53
2024-03-01T16:00:23.226Z,35.92
2024-03-01T16:05:25.516Z,41.67
2024-03-01T16:10:27.779Z,45.08
2024-03-01T16:15:34.066Z,47.20
2024-03-01T16:20:36.169Z,42.42
2024-03-01T16:25:38.518Z,44.08
2024-03-01T16:30:41.282Z,47.85
2024-03-01T16:35:49.231Z,50.17
2024-03-01T16:40:51.221Z,54.33
2024-03-01T16:45:53.204Z,61.42
2024-03-01T16:50:57.488Z,52.42
2024-03-01T16:56:04.082Z,44.95
2024-03-01T17:01:08.045Z,53.58
2024-03-01T17:06:11.113Z,61.50
2024-03-01T17:11:14.297Z,54.58
2024-03-01T17:16:25.752Z,50.97
2024-03-01T17:21:27.831Z,54.45
2024-03-01T17:26:29.720Z,54.33
2024-03-01T17:31:31.841Z,53.45
2024-03-01T17:36:34.417Z,70.65
2024-03-01T17:41:36.419Z,64.05
2024-03-01T17:46:38.460Z,69.00
2024-03-01T17:51:40.454Z,64.93
2024-03-01T17:56:42.408Z,60.72
2024-03-01T18:01:44.378Z,42.25
2024-03-01T18:06:47.854Z,62.00
2024-03-01T18:11:49.838Z,59.40
2024-03-01T18:16:51.923Z,68.75
2024-03-01T18:21:55.104Z,65.40
2024-03-01T18:26:58.985Z,74.45
2024-03-01T18:32:01.429Z,74.70
2024-03-01T18:37:03.595Z,75.55
2024-03-01T18:42:05.685Z,71.10
2024-03-01T18:47:07.695Z,43.67
2024-03-01T18:52:09.985Z,66.10
2024-03-01T18:57:12.942Z,60.33
2024-03-01T19:02:21.257Z,54.25
2024-03-01T19:07:27.286Z,68.50
2024-03-01T19:12:29.244Z,56.80
2024-03-01T19:17:31.267Z,60.50
2024-03-01T19:22:34.671Z,57.72
2024-03-01T19:27:36.525Z,52.90
2024-03-01T19:32:38.549Z,51.47
2024-03-01T19:37:41.217Z,53.72
2024-03-01T19:42:44.513Z,51.40
2024-03-01T19:47:46.732Z,44.35
2024-03-01T19:52:48.808Z,52.08
2024-03-01T19:57:50.764Z,47.53
2024-03-01T20:02:52.692Z,50.17
2024-03-01T20:07:54.687Z,53.40
2024-03-01T20:12:57.382Z,47.75
2024-03-01T20:17:59.597Z,45.30
2024-03-01T20:23:01.526Z,46.20
2024-03-01T20:28:06.196Z,45.65
2024-03-01T20:33:08.368Z,40.97
2024-03-01T20:38:11.385Z,54.28
2024-03-01T20:43:13.670Z,41.95
2024-03-01T20:48:15.592Z,44.08
2024-03-01T20:53:17.680Z,43.83
2024-03-01T20:58:19.824Z,35.30
2024-03-01T21:03:21.922Z,38.10
2024-03-01T21:08:23.961Z,42.85
2024-03-01T21:13:25.901Z,44.08
2024-03-01T21:18:28.295Z,45.67
2024-03-01T21:23:30.265Z,42.40
2024-03-01T21:28:32.241Z,38.33
2024-03-01T21:33:34.138Z,38.33
2024-03-01T21:38:36.238Z,37.70
2024-03-01T21:43:38.192Z,37.25
2024-03-01T21:48:40.092Z,43.25
2024-03-01T21:53:41.964Z,30.63
2024-03-01T21:58:43.875Z,37.47
2024-03-01T22:03:45.837Z,32.58
2024-03-01T22:08:47.812Z,31.05
2024-03-01T22:13:50.985Z,40.33
2024-03-01T22:18:53.003Z,33.65
2024-03-01T22:23:55.022Z,33.97
2024-03-01T22:28:57.008Z,33.88
2024-03-01T22:33:59.842Z,26.83
2024-03-01T22:39:01.959Z,31.83
2024-03-01T22:44:05.008Z,30.92
2024-03-01T22:49:12.619Z,28.77
2024-03-01T23:00:11.962Z,33.43
2024-03-01T23:05:32.488Z,29.55
2024-03-01T23:10:39.112Z,31.40
2024-03-01T23:15:41.146Z,22.70
2024-03-01T23:20:43.881Z,28.98
2024-03-01T23:25:45.976Z,26.42
2024-03-01T23:30:49.285Z,29.23
2024-03-01T23:35:51.248Z,28.60
2024-03-01T23:40:55.232Z,28.23
2024-03-01T23:45:57.401Z,33.40
2024-03-01T23:50:59.975Z,34.22
2024-03-01T23:56:02.027Z,34.33
